Terminal Aerodrome Forecast
Issued by NWS

Home | Current Version | Previous Version | Text Only | Print | Product List | Glossary On
Versions: 1 2 3 4 5 6 7 8 9 10 11 12 13 14 15 16 17 18 19 20 21 22 23
000
FTUS43 KILX 271143
TAFBMI
TAF
KBMI 271143Z 2712/2812 VRB04KT 2SM BR OVC003
      TEMPO 2712/2715 1/2SM FG
     FM271600 08008KT 3SM -SHRA BR OVC012
     FM272100 05008KT 2SM -RA BR OVC008
     FM280300 02009KT 4SM BR OVC006=

USA.gov is the U.S. government's official web portal to all federal, state and local government web resources and services.